createdAt,value
2022-12-24T00:00:10.964Z,71.15
2022-12-24T00:02:37.876Z,71.18
2022-12-24T00:05:05.105Z,71.06
2022-12-24T00:07:32.077Z,70.99
2022-12-24T00:09:58.704Z,71.25
2022-12-24T00:12:25.407Z,71.43
2022-12-24T00:14:52.262Z,71.28
2022-12-24T00:17:19.399Z,71.47
2022-12-24T00:19:46.097Z,71.49
2022-12-24T00:22:12.783Z,71.38
2022-12-24T00:24:39.522Z,71.40
2022-12-24T00:27:06.250Z,71.10
2022-12-24T00:29:33.828Z,71.26
2022-12-24T00:32:00.942Z,71.27
2022-12-24T00:34:27.651Z,71.40
2022-12-24T00:36:54.810Z,71.59
2022-12-24T00:39:21.467Z,71.80
2022-12-24T00:41:48.257Z,71.80
2022-12-24T00:44:14.969Z,71.82
2022-12-24T00:46:42.827Z,71.63
2022-12-24T00:49:12.520Z,71.67
2022-12-24T00:51:39.496Z,71.42
2022-12-24T00:54:06.536Z,71.62
2022-12-24T00:56:33.901Z,71.60
2022-12-24T00:59:01.036Z,71.58
2022-12-24T01:01:27.897Z,71.51
2022-12-24T01:04:18.096Z,71.48
2022-12-24T01:06:44.755Z,71.50
2022-12-24T01:09:11.989Z,71.54
2022-12-24T01:11:39.251Z,71.44
2022-12-24T01:14:06.029Z,71.40
2022-12-24T01:16:32.802Z,71.36
2022-12-24T01:18:59.597Z,71.26
2022-12-24T01:21:26.294Z,71.30
2022-12-24T01:23:53.236Z,71.32
2022-12-24T01:26:19.894Z,71.30
2022-12-24T01:28:46.635Z,71.36
2022-12-24T01:31:16.004Z,71.37
2022-12-24T01:33:43.970Z,71.52
2022-12-24T01:36:11.888Z,71.67
2022-12-24T01:38:39.158Z,71.41
2022-12-24T01:41:24.914Z,71.65
2022-12-24T01:43:51.572Z,71.63
2022-12-24T01:46:29.922Z,71.62
2022-12-24T01:48:59.917Z,71.91
2022-12-24T01:51:38.077Z,71.77
2022-12-24T01:54:09.610Z,71.73
2022-12-24T01:56:40.627Z,72.09
2022-12-24T01:59:12.343Z,72.04
2022-12-24T02:01:39.896Z,71.97
2022-12-24T02:04:19.533Z,72.03
2022-12-24T02:06:46.174Z,71.93
2022-12-24T02:09:12.941Z,71.88
2022-12-24T02:11:41.102Z,71.87
2022-12-24T02:14:08.347Z,71.70
2022-12-24T02:17:03.175Z,72.09
2022-12-24T02:20:03.696Z,72.19
2022-12-24T02:22:55.431Z,72.10
2022-12-24T02:26:10.405Z,72.19
2022-12-24T02:29:01.317Z,72.70
2022-12-24T02:31:38.751Z,72.60
2022-12-24T02:34:24.199Z,72.50
2022-12-24T02:37:03.282Z,72.51
2022-12-24T02:39:49.060Z,72.33
2022-12-24T02:42:20.538Z,72.21
2022-12-24T02:45:03.962Z,72.07
2022-12-24T02:47:34.199Z,72.14
2022-12-24T02:50:02.498Z,72.12
2022-12-24T02:52:41.761Z,72.17
2022-12-24T02:55:40.009Z,72.33
2022-12-24T02:58:15.195Z,72.41
2022-12-24T03:00:52.474Z,72.22
2022-12-24T03:03:45.632Z,72.21
2022-12-24T03:06:23.635Z,72.09
2022-12-24T03:09:11.508Z,72.18
2022-12-24T03:11:43.152Z,72.20
2022-12-24T03:14:10.202Z,72.06
2022-12-24T03:16:37.218Z,72.23
2022-12-24T03:19:03.994Z,72.36
2022-12-24T03:21:35.235Z,72.19
2022-12-24T03:24:02.595Z,72.16
2022-12-24T03:26:32.529Z,72.06
2022-12-24T03:29:00.284Z,72.06
2022-12-24T03:31:27.031Z,71.94
2022-12-24T03:33:53.976Z,72.22
2022-12-24T03:36:20.695Z,72.09
2022-12-24T03:38:47.438Z,72.38
2022-12-24T03:41:14.194Z,72.41
2022-12-24T03:43:41.125Z,72.41
2022-12-24T03:46:08.671Z,72.42
2022-12-24T03:48:36.339Z,72.49
2022-12-24T03:51:04.005Z,72.41
2022-12-24T03:53:30.947Z,72.59
2022-12-24T03:55:57.901Z,72.26
2022-12-24T03:58:24.901Z,72.25
2022-12-24T04:00:53.749Z,72.24
2022-12-24T04:03:21.073Z,72.22
2022-12-24T04:05:48.347Z,72.34
2022-12-24T04:08:15.020Z,72.47
2022-12-24T04:10:41.842Z,72.47
2022-12-24T04:13:08.535Z,72.34
2022-12-24T04:15:35.216Z,72.41
2022-12-24T04:18:01.955Z,72.29
2022-12-24T04:20:28.580Z,72.28
2022-12-24T04:22:55.255Z,72.25
2022-12-24T04:25:22.007Z,72.39
2022-12-24T04:27:48.683Z,72.34
2022-12-24T04:30:15.349Z,72.44
2022-12-24T04:32:41.957Z,72.62
2022-12-24T04:35:08.774Z,72.98
2022-12-24T04:37:35.656Z,72.71
2022-12-24T04:40:02.391Z,72.84
2022-12-24T04:42:29.071Z,72.86
2022-12-24T04:44:55.786Z,73.00
2022-12-24T04:47:22.496Z,73.11
2022-12-24T04:49:49.239Z,73.19
2022-12-24T04:52:15.948Z,73.08
2022-12-24T04:54:42.747Z,73.24
2022-12-24T04:57:09.412Z,73.31
2022-12-24T04:59:36.130Z,73.31
2022-12-24T05:02:02.908Z,73.40
2022-12-24T05:04:29.874Z,73.38
2022-12-24T05:06:56.527Z,73.37
2022-12-24T05:09:23.102Z,73.40
2022-12-24T05:11:49.764Z,73.55
2022-12-24T05:14:16.492Z,73.81
2022-12-24T05:16:44.263Z,73.63
2022-12-24T05:19:11.006Z,73.76
2022-12-24T05:21:37.624Z,74.04
2022-12-24T05:24:23.492Z,74.06
2022-12-24T05:26:53.565Z,74.27
2022-12-24T05:29:20.656Z,74.24
2022-12-24T05:31:47.849Z,74.27
2022-12-24T05:34:16.005Z,74.21
2022-12-24T05:36:43.840Z,74.35
2022-12-24T05:39:16.305Z,74.32
2022-12-24T05:41:43.618Z,74.53
2022-12-24T05:44:10.539Z,74.64
2022-12-24T05:46:37.353Z,74.63
2022-12-24T05:49:04.330Z,74.84
2022-12-24T05:51:31.054Z,74.68
2022-12-24T05:53:57.776Z,74.62
2022-12-24T05:56:24.784Z,74.66
2022-12-24T05:58:53.847Z,74.74
2022-12-24T06:01:21.849Z,74.68
2022-12-24T06:03:51.517Z,74.78
2022-12-24T06:06:23.979Z,74.68
2022-12-24T06:08:52.808Z,74.82
2022-12-24T06:11:21.805Z,74.86
2022-12-24T06:13:48.836Z,74.81
2022-12-24T06:16:19.229Z,74.93
2022-12-24T06:18:46.441Z,74.97
2022-12-24T06:21:14.064Z,74.86
2022-12-24T06:23:43.069Z,74.77
2022-12-24T06:26:13.089Z,74.69
2022-12-24T06:28:40.351Z,74.77
2022-12-24T06:31:07.778Z,74.75
2022-12-24T06:33:35.239Z,74.83
2022-12-24T06:36:02.243Z,74.65
2022-12-24T06:38:31.698Z,74.66
2022-12-24T06:40:58.786Z,74.75
2022-12-24T06:43:25.499Z,74.52
2022-12-24T06:45:53.593Z,74.68
2022-12-24T06:48:20.396Z,74.59
2022-12-24T06:50:47.253Z,74.74
2022-12-24T06:53:13.990Z,74.67
2022-12-24T06:55:41.384Z,74.55
2022-12-24T06:58:08.052Z,74.61
2022-12-24T07:00:34.752Z,74.66
2022-12-24T07:03:01.758Z,74.78
2022-12-24T07:05:29.444Z,74.71
2022-12-24T07:07:56.193Z,74.77
2022-12-24T07:10:23.302Z,74.79
2022-12-24T07:12:49.994Z,74.79
2022-12-24T07:15:17.031Z,74.74
2022-12-24T07:17:43.985Z,74.69
2022-12-24T07:20:15.031Z,74.73
2022-12-24T07:22:43.032Z,74.74
2022-12-24T07:25:11.253Z,74.74
2022-12-24T07:27:38.385Z,74.66
2022-12-24T07:30:06.596Z,74.27
2022-12-24T07:32:33.376Z,74.12
2022-12-24T07:35:00.137Z,74.39
2022-12-24T07:37:26.899Z,74.11
2022-12-24T07:39:53.530Z,74.22
2022-12-24T07:42:20.206Z,74.22
2022-12-24T07:44:46.917Z,74.35
2022-12-24T07:47:13.757Z,74.31
2022-12-24T07:49:40.546Z,74.23
2022-12-24T07:52:07.249Z,74.28
2022-12-24T07:54:33.998Z,74.20
2022-12-24T07:57:00.659Z,74.22
2022-12-24T07:59:27.281Z,73.94
2022-12-24T08:01:54.100Z,73.77
2022-12-24T08:04:21.047Z,73.88
2022-12-24T08:06:47.775Z,73.83
2022-12-24T08:09:15.377Z,73.67
2022-12-24T08:11:47.969Z,73.67
2022-12-24T08:14:18.581Z,73.71
2022-12-24T08:16:45.393Z,73.97
2022-12-24T08:19:12.449Z,73.72
2022-12-24T08:21:39.198Z,73.64
2022-12-24T08:24:06.686Z,73.68
2022-12-24T08:26:34.163Z,73.46
2022-12-24T08:29:01.437Z,73.68
2022-12-24T08:31:28.560Z,73.74
2022-12-24T08:33:55.469Z,73.60
2022-12-24T08:36:22.410Z,73.85
2022-12-24T08:38:49.024Z,73.58
2022-12-24T08:41:15.680Z,73.34
2022-12-24T08:43:42.433Z,73.14
2022-12-24T08:46:10.838Z,72.79
2022-12-24T08:48:37.657Z,72.73
2022-12-24T08:51:12.305Z,72.62
2022-12-24T08:53:39.931Z,72.56
2022-12-24T08:56:09.155Z,72.51
2022-12-24T08:58:36.641Z,72.53
2022-12-24T09:01:14.206Z,72.52
2022-12-24T09:03:41.233Z,72.58
2022-12-24T09:06:09.547Z,73.19
2022-12-24T09:08:36.828Z,73.25
2022-12-24T09:11:10.202Z,73.16
2022-12-24T09:13:37.620Z,73.05
2022-12-24T09:16:05.341Z,73.32
2022-12-24T09:18:32.133Z,73.34
2022-12-24T09:21:03.501Z,73.06
2022-12-24T09:23:30.960Z,72.93
2022-12-24T09:25:57.773Z,72.78
2022-12-24T09:28:24.675Z,72.87
2022-12-24T09:30:59.792Z,73.06
2022-12-24T09:33:28.142Z,73.05
2022-12-24T09:35:55.700Z,72.99
2022-12-24T09:38:23.412Z,72.69
2022-12-24T09:40:52.220Z,72.47
2022-12-24T09:43:22.607Z,72.50
2022-12-24T09:46:04.370Z,72.62
2022-12-24T09:48:39.365Z,72.61
2022-12-24T09:51:11.892Z,72.56
2022-12-24T09:53:53.855Z,72.38
2022-12-24T09:56:26.259Z,72.59
2022-12-24T09:59:05.481Z,72.32
2022-12-24T10:01:35.114Z,72.33
2022-12-24T10:04:05.196Z,72.11
2022-12-24T10:06:57.310Z,72.09
2022-12-24T10:09:41.533Z,71.94
2022-12-24T10:12:49.709Z,72.09
2022-12-24T10:15:19.415Z,71.82
2022-12-24T10:17:55.040Z,72.09
2022-12-24T10:20:36.241Z,72.16
2022-12-24T10:23:21.926Z,72.29
2022-12-24T10:25:57.063Z,72.13
2022-12-24T10:28:41.631Z,72.01
2022-12-24T10:31:10.823Z,71.79
2022-12-24T10:33:47.290Z,71.43
2022-12-24T10:36:21.255Z,71.39
2022-12-24T10:38:48.018Z,71.12
2022-12-24T10:41:16.217Z,71.01
2022-12-24T10:43:45.544Z,71.17
2022-12-24T10:46:33.178Z,70.93
2022-12-24T10:49:05.779Z,71.59
2022-12-24T10:51:43.542Z,70.84
2022-12-24T10:54:27.089Z,71.22
2022-12-24T10:57:00.307Z,71.06
2022-12-24T10:59:40.511Z,70.73
2022-12-24T11:02:26.081Z,70.47
2022-12-24T11:04:53.448Z,70.72
2022-12-24T11:07:23.154Z,70.85
2022-12-24T11:09:59.402Z,70.53
2022-12-24T11:13:05.884Z,70.51
2022-12-24T11:15:35.225Z,70.29
2022-12-24T11:18:13.485Z,70.36
2022-12-24T11:20:41.170Z,70.12
2022-12-24T11:23:16.459Z,69.80
2022-12-24T11:25:48.454Z,70.00
2022-12-24T11:28:27.252Z,70.25
2022-12-24T11:31:05.515Z,69.64
2022-12-24T11:33:47.241Z,69.28
2022-12-24T11:36:15.302Z,68.79
2022-12-24T11:38:42.017Z,68.55
2022-12-24T11:41:12.649Z,68.54
2022-12-24T11:43:46.261Z,68.84
2022-12-24T11:46:17.637Z,69.09
2022-12-24T11:48:45.083Z,68.92
2022-12-24T11:51:26.540Z,68.63
2022-12-24T11:54:04.626Z,68.90
2022-12-24T11:56:43.341Z,67.82
2022-12-24T11:59:18.199Z,67.75
2022-12-24T12:01:58.583Z,68.43
2022-12-24T12:04:30.462Z,68.26
2022-12-24T12:07:22.674Z,68.09
2022-12-24T12:09:53.334Z,67.71
2022-12-24T12:12:27.527Z,67.53
2022-12-24T12:15:05.081Z,67.15
2022-12-24T12:17:58.886Z,67.38
2022-12-24T12:20:34.454Z,67.02
2022-12-24T12:23:17.067Z,67.27
2022-12-24T12:25:51.397Z,67.17
2022-12-24T12:28:30.915Z,66.69
2022-12-24T12:31:16.284Z,66.52
2022-12-24T12:33:46.082Z,66.60
2022-12-24T12:36:16.386Z,66.61
2022-12-24T12:38:43.150Z,67.21
2022-12-24T12:41:31.564Z,66.85
2022-12-24T12:44:04.213Z,67.19
2022-12-24T12:46:33.800Z,67.66
2022-12-24T12:49:46.776Z,67.77
2022-12-24T12:52:22.276Z,68.10
2022-12-24T12:55:01.691Z,68.33
2022-12-24T12:57:36.100Z,68.55
2022-12-24T13:00:12.085Z,68.56
2022-12-24T13:03:03.625Z,68.50
2022-12-24T13:06:05.589Z,68.38
2022-12-24T13:09:10.359Z,68.97
2022-12-24T13:12:03.437Z,69.72
2022-12-24T13:15:02.944Z,68.93
2022-12-24T13:17:54.513Z,68.79
2022-12-24T13:20:30.186Z,68.69
2022-12-24T13:22:56.786Z,68.95
2022-12-24T13:25:26.424Z,69.09
2022-12-24T13:27:53.810Z,68.97
2022-12-24T13:30:40.378Z,69.48
2022-12-24T13:33:12.376Z,69.84
2022-12-24T13:35:59.347Z,69.07
2022-12-24T13:38:29.490Z,69.37
2022-12-24T13:40:56.609Z,68.95
2022-12-24T13:43:23.306Z,69.08
2022-12-24T13:45:52.216Z,69.17
2022-12-24T13:48:32.699Z,69.03
2022-12-24T13:51:21.325Z,69.09
2022-12-24T13:53:49.651Z,68.84
2022-12-24T13:56:16.818Z,68.98
2022-12-24T13:58:47.695Z,68.99
2022-12-24T14:01:22.066Z,69.32
2022-12-24T14:03:53.177Z,69.52
2022-12-24T14:06:33.740Z,69.50
2022-12-24T14:09:15.124Z,69.25
2022-12-24T14:11:56.092Z,69.32
2022-12-24T14:14:42.613Z,68.86
2022-12-24T14:17:23.287Z,68.65
2022-12-24T14:19:54.119Z,68.16
2022-12-24T14:22:32.345Z,68.64
2022-12-24T14:25:02.136Z,68.42
2022-12-24T14:27:39.319Z,68.03
2022-12-24T14:30:06.968Z,68.00
2022-12-24T14:32:41.302Z,68.51
2022-12-24T14:35:15.935Z,68.66
2022-12-24T14:37:46.592Z,68.37
2022-12-24T14:40:18.004Z,67.97
2022-12-24T14:42:58.855Z,68.52
2022-12-24T14:45:47.571Z,68.56
2022-12-24T14:48:36.207Z,68.44
2022-12-24T14:51:23.354Z,68.17
2022-12-24T14:53:59.005Z,68.45
2022-12-24T14:56:25.760Z,68.66
2022-12-24T14:58:52.717Z,68.52
2022-12-24T15:01:23.849Z,68.52
2022-12-24T15:04:09.394Z,68.42
2022-12-24T15:06:41.332Z,68.53
2022-12-24T15:09:17.620Z,68.90
2022-12-24T15:11:46.494Z,68.38
2022-12-24T15:14:13.888Z,68.70
2022-12-24T15:16:40.871Z,68.64
2022-12-24T15:19:22.378Z,68.94
2022-12-24T15:21:49.936Z,68.58
2022-12-24T15:24:37.407Z,68.38
2022-12-24T15:27:16.108Z,68.11
2022-12-24T15:29:44.933Z,68.73
2022-12-24T15:32:17.174Z,69.00
2022-12-24T15:34:49.426Z,68.64
2022-12-24T15:37:28.236Z,68.75
2022-12-24T15:40:07.677Z,68.45
2022-12-24T15:42:34.959Z,68.17
2022-12-24T15:45:14.903Z,68.18
2022-12-24T15:47:50.944Z,67.98
2022-12-24T15:50:37.049Z,68.38
2022-12-24T15:53:20.676Z,69.02
2022-12-24T15:56:10.068Z,69.39
2022-12-24T15:58:42.757Z,69.09
2022-12-24T16:01:09.782Z,68.82
2022-12-24T16:03:39.544Z,68.84
2022-12-24T16:06:11.943Z,68.84
2022-12-24T16:08:40.438Z,68.73
2022-12-24T16:11:17.847Z,68.83
2022-12-24T16:13:56.344Z,69.18
2022-12-24T16:16:32.912Z,69.21
2022-12-24T16:19:01.409Z,69.32
2022-12-24T16:21:36.775Z,68.91
2022-12-24T16:24:06.372Z,69.25
2022-12-24T16:26:35.331Z,69.24
2022-12-24T16:29:02.499Z,69.32
2022-12-24T16:31:36.189Z,69.38
2022-12-24T16:34:04.923Z,69.51
2022-12-24T16:36:32.675Z,69.52
2022-12-24T16:39:18.744Z,69.76
2022-12-24T16:42:04.018Z,69.49
2022-12-24T16:44:30.637Z,69.65
2022-12-24T16:46:58.631Z,70.06
2022-12-24T16:49:25.492Z,69.82
2022-12-24T16:51:52.493Z,69.92
2022-12-24T16:54:19.258Z,69.81
2022-12-24T16:56:46.409Z,69.65
2022-12-24T16:59:22.262Z,70.08
2022-12-24T17:01:50.227Z,69.80
2022-12-24T17:04:18.616Z,69.84
2022-12-24T17:06:48.642Z,69.76
2022-12-24T17:09:15.468Z,69.67
2022-12-24T17:11:42.211Z,69.74
2022-12-24T17:14:18.011Z,69.87
2022-12-24T17:16:47.117Z,69.75
2022-12-24T17:19:13.903Z,70.14
2022-12-24T17:21:41.202Z,70.01
2022-12-24T17:24:08.902Z,69.96
2022-12-24T17:26:37.104Z,70.02
2022-12-24T17:29:05.258Z,70.35
2022-12-24T17:31:33.319Z,70.54
2022-12-24T17:34:00.317Z,70.86
2022-12-24T17:36:27.281Z,70.48
2022-12-24T17:38:54.175Z,70.39
2022-12-24T17:41:21.637Z,70.46
2022-12-24T17:43:48.759Z,70.51
2022-12-24T17:46:22.495Z,70.60
2022-12-24T17:48:50.563Z,70.57
2022-12-24T17:51:20.478Z,70.69
2022-12-24T17:53:48.215Z,70.72
2022-12-24T17:56:15.625Z,70.61
2022-12-24T17:58:44.177Z,70.49
2022-12-24T18:01:13.900Z,70.55
2022-12-24T18:03:42.029Z,70.71
2022-12-24T18:06:11.387Z,70.51
2022-12-24T18:08:39.782Z,70.51
2022-12-24T18:11:14.481Z,70.48
2022-12-24T18:13:42.202Z,70.66
2022-12-24T18:16:14.899Z,70.96
2022-12-24T18:18:41.598Z,70.92
2022-12-24T18:21:08.302Z,70.89
2022-12-24T18:23:35.009Z,70.87
2022-12-24T18:26:02.672Z,71.04
2022-12-24T18:28:30.137Z,70.59
2022-12-24T18:31:09.959Z,70.49
2022-12-24T18:33:37.263Z,71.05
2022-12-24T18:36:05.029Z,70.75
2022-12-24T18:38:32.979Z,70.66
2022-12-24T18:41:07.623Z,70.53
2022-12-24T18:43:34.746Z,70.85
2022-12-24T18:46:07.550Z,70.93
2022-12-24T18:48:34.257Z,70.94
2022-12-24T18:51:01.111Z,70.76
2022-12-24T18:53:28.051Z,70.59
2022-12-24T18:55:55.025Z,70.97
2022-12-24T18:58:21.722Z,70.74
2022-12-24T19:00:48.611Z,70.68
2022-12-24T19:03:16.768Z,70.80
2022-12-24T19:05:44.048Z,70.80
2022-12-24T19:08:46.534Z,70.91
2022-12-24T19:10:57.748Z,70.92
2022-12-24T19:13:24.642Z,71.00
2022-12-24T19:15:51.588Z,70.94
2022-12-24T19:18:18.471Z,70.88
2022-12-24T19:20:45.281Z,70.81
2022-12-24T19:23:12.113Z,70.58
2022-12-24T19:25:38.784Z,71.20
2022-12-24T19:28:08.869Z,70.98
2022-12-24T19:30:37.169Z,70.48
2022-12-24T19:33:04.411Z,70.71
2022-12-24T19:35:31.807Z,70.38
2022-12-24T19:37:59.379Z,70.49
2022-12-24T19:40:27.002Z,70.56
2022-12-24T19:42:53.943Z,70.44
2022-12-24T19:45:23.066Z,70.55
2022-12-24T19:47:51.208Z,70.52
2022-12-24T19:50:18.856Z,70.31
2022-12-24T19:52:46.262Z,70.08
2022-12-24T19:55:13.445Z,70.30
2022-12-24T19:57:40.228Z,70.32
2022-12-24T20:00:09.389Z,70.44
2022-12-24T20:02:41.974Z,70.43
2022-12-24T20:05:09.035Z,70.25
2022-12-24T20:07:35.883Z,70.31
2022-12-24T20:10:03.019Z,70.34
2022-12-24T20:12:30.179Z,70.60
2022-12-24T20:14:57.326Z,70.59
2022-12-24T20:17:24.375Z,70.38
2022-12-24T20:19:51.124Z,70.32
2022-12-24T20:22:17.943Z,70.38
2022-12-24T20:24:44.808Z,70.71
2022-12-24T20:27:11.852Z,70.47
2022-12-24T20:29:38.592Z,70.64
2022-12-24T20:32:06.080Z,70.50
2022-12-24T20:34:33.805Z,70.68
2022-12-24T20:37:00.664Z,71.00
2022-12-24T20:39:27.690Z,71.06
2022-12-24T20:41:54.464Z,71.13
2022-12-24T20:44:21.135Z,70.72
2022-12-24T20:46:47.863Z,71.00
2022-12-24T20:49:14.666Z,71.38
2022-12-24T20:51:41.429Z,71.25
2022-12-24T20:54:08.463Z,71.13
2022-12-24T20:56:35.555Z,71.25
2022-12-24T20:59:02.572Z,70.91
2022-12-24T21:01:30.187Z,70.89
2022-12-24T21:04:00.457Z,71.27
2022-12-24T21:06:27.699Z,71.31
2022-12-24T21:08:55.156Z,71.11
2022-12-24T21:11:41.491Z,70.60
2022-12-24T21:14:08.586Z,71.14
2022-12-24T21:16:37.137Z,70.35
2022-12-24T21:19:05.601Z,70.35
2022-12-24T21:21:32.966Z,70.51
2022-12-24T21:23:59.724Z,70.43
2022-12-24T21:26:26.574Z,70.53
2022-12-24T21:28:54.112Z,70.34
2022-12-24T21:31:21.024Z,70.21
2022-12-24T21:33:47.956Z,70.16
2022-12-24T21:36:15.245Z,70.21
2022-12-24T21:38:42.361Z,70.42
2022-12-24T21:41:12.395Z,70.65
2022-12-24T21:43:40.671Z,70.86
2022-12-24T21:46:09.606Z,70.59
2022-12-24T21:48:56.723Z,70.19
2022-12-24T21:51:24.908Z,70.27
2022-12-24T21:54:10.455Z,70.08
2022-12-24T21:56:56.343Z,70.02
2022-12-24T21:59:26.845Z,70.11
2022-12-24T22:01:55.460Z,70.46
2022-12-24T22:04:23.179Z,70.60
2022-12-24T22:07:09.025Z,70.37
2022-12-24T22:09:56.216Z,69.93
2022-12-24T22:12:23.531Z,69.66
2022-12-24T22:14:50.832Z,69.71
2022-12-24T22:17:24.480Z,70.02
2022-12-24T22:19:52.675Z,70.32
2022-12-24T22:22:19.337Z,69.92
2022-12-24T22:24:46.530Z,69.67
2022-12-24T22:27:13.283Z,69.78
2022-12-24T22:29:39.989Z,70.02
2022-12-24T22:32:06.586Z,70.43
2022-12-24T22:34:33.428Z,70.63
2022-12-24T22:37:00.168Z,70.37
2022-12-24T22:39:26.808Z,70.29
2022-12-24T22:41:53.473Z,70.13
2022-12-24T22:44:20.201Z,70.16
2022-12-24T22:46:46.998Z,70.02
2022-12-24T22:49:14.283Z,69.64
2022-12-24T22:51:41.095Z,69.92
2022-12-24T22:54:07.802Z,69.91
2022-12-24T22:56:40.648Z,69.69
2022-12-24T22:59:12.406Z,70.11
2022-12-24T23:01:41.784Z,70.35
2022-12-24T23:04:09.348Z,70.39
2022-12-24T23:06:36.143Z,70.54
2022-12-24T23:09:03.808Z,70.59
2022-12-24T23:11:30.920Z,70.52
2022-12-24T23:14:16.202Z,70.57
2022-12-24T23:16:43.010Z,70.54
2022-12-24T23:19:10.289Z,70.38
2022-12-24T23:21:38.444Z,70.46
2022-12-24T23:24:05.690Z,70.28
2022-12-24T23:26:32.337Z,70.32
2022-12-24T23:28:59.106Z,70.41
2022-12-24T23:31:26.753Z,70.50
2022-12-24T23:33:53.712Z,70.49
2022-12-24T23:36:20.559Z,70.49
2022-12-24T23:38:48.194Z,70.52
2022-12-24T23:41:17.673Z,70.71
2022-12-24T23:43:45.720Z,70.64
2022-12-24T23:46:14.780Z,70.41
2022-12-24T23:48:41.772Z,70.38
2022-12-24T23:51:11.896Z,70.24
2022-12-24T23:53:38.666Z,70.42
2022-12-24T23:56:06.739Z,70.22
2022-12-24T23:58:33.386Z,70.41
